sensor_id;sensor_type;location;lat;lon;timestamp;pressure;altitude;pressure_sealevel;temperature;humidity
57801;BME280;43627;42.728;23.256;2023-01-24T00:00:18;95909.69;;;3.61;100.00
57801;BME280;43627;42.728;23.256;2023-01-24T00:02:44;95931.59;;;3.70;100.00
57801;BME280;43627;42.728;23.256;2023-01-24T00:05:11;95922.72;;;3.69;100.00
57801;BME280;43627;42.728;23.256;2023-01-24T00:07:38;95936.94;;;3.77;100.00
57801;BME280;43627;42.728;23.256;2023-01-24T00:10:05;95936.94;;;3.77;100.00
57801;BME280;43627;42.728;23.256;2023-01-24T00:12:32;95914.28;;;3.64;100.00
57801;BME280;43627;42.728;23.256;2023-01-24T00:14:58;95942.38;;;3.70;100.00
57801;BME280;43627;42.728;23.256;2023-01-24T00:17:25;95943.88;;;3.75;100.00
57801;BME280;43627;42.728;23.256;2023-01-24T00:19:52;95938.13;;;3.69;100.00
57801;BME280;43627;42.728;23.256;2023-01-24T00:22:18;95907.84;;;3.43;100.00
57801;BME280;43627;42.728;23.256;2023-01-24T00:24:45;95934.66;;;3.68;100.00
57801;BME280;43627;42.728;23.256;2023-01-24T00:27:12;95923.94;;;3.58;100.00
57801;BME280;43627;42.728;23.256;2023-01-24T00:29:39;95947.44;;;3.57;100.00
57801;BME280;43627;42.728;23.256;2023-01-24T00:32:05;95944.69;;;3.68;100.00
57801;BME280;43627;42.728;23.256;2023-01-24T00:34:32;95935.91;;;3.53;100.00
57801;BME280;43627;42.728;23.256;2023-01-24T00:36:59;95958.59;;;3.63;100.00
57801;BME280;43627;42.728;23.256;2023-01-24T00:39:25;95955.47;;;3.68;100.00
57801;BME280;43627;42.728;23.256;2023-01-24T00:41:52;95932.06;;;3.51;100.00
57801;BME280;43627;42.728;23.256;2023-01-24T00:44:19;95945.94;;;3.49;100.00
57801;BME280;43627;42.728;23.256;2023-01-24T00:46:45;95944.38;;;3.48;100.00
57801;BME280;43627;42.728;23.256;2023-01-24T00:49:12;95938.94;;;3.59;100.00
57801;BME280;43627;42.728;23.256;2023-01-24T00:51:39;95957.06;;;3.62;100.00
57801;BME280;43627;42.728;23.256;2023-01-24T00:54:05;95935.16;;;3.46;100.00
57801;BME280;43627;42.728;23.256;2023-01-24T00:56:32;95918.66;;;3.33;100.00
57801;BME280;43627;42.728;23.256;2023-01-24T00:58:59;95935.16;;;3.46;100.00
57801;BME280;43627;42.728;23.256;2023-01-24T01:01:25;95955.53;;;3.57;100.00
57801;BME280;43627;42.728;23.256;2023-01-24T01:03:56;95965.53;;;3.57;100.00
57801;BME280;43627;42.728;23.256;2023-01-24T01:06:24;95954.41;;;3.51;100.00
57801;BME280;43627;42.728;23.256;2023-01-24T01:08:51;95925.56;;;3.37;100.00
57801;BME280;43627;42.728;23.256;2023-01-24T01:11:18;95931.38;;;3.32;100.00
57801;BME280;43627;42.728;23.256;2023-01-24T01:13:45;95960.22;;;3.42;100.00
57801;BME280;43627;42.728;23.256;2023-01-24T01:16:17;95957.13;;;3.40;100.00
57801;BME280;43627;42.728;23.256;2023-01-24T01:18:46;95945.63;;;3.33;100.00
57801;BME280;43627;42.728;23.256;2023-01-24T01:21:17;95955.25;;;3.34;100.00
57801;BME280;43627;42.728;23.256;2023-01-24T01:23:44;95924.09;;;3.19;100.00
57801;BME280;43627;42.728;23.256;2023-01-24T01:26:20;95954.06;;;3.31;100.00
57801;BME280;43627;42.728;23.256;2023-01-24T01:28:47;95958.34;;;3.25;100.00
57801;BME280;43627;42.728;23.256;2023-01-24T01:31:15;95965.28;;;3.23;100.00
57801;BME280;43627;42.728;23.256;2023-01-24T01:33:43;95984.50;;;3.28;100.00
57801;BME280;43627;42.728;23.256;2023-01-24T01:36:10;95962.97;;;3.21;100.00
57801;BME280;43627;42.728;23.256;2023-01-24T01:38:37;95948.78;;;3.06;100.00
57801;BME280;43627;42.728;23.256;2023-01-24T01:41:04;95964.91;;;3.17;100.00
57801;BME280;43627;42.728;23.256;2023-01-24T01:43:31;95947.63;;;3.04;100.00
57801;BME280;43627;42.728;23.256;2023-01-24T01:46:40;95964.16;;;3.13;100.00
57801;BME280;43627;42.728;23.256;2023-01-24T01:49:17;95931.84;;;2.92;100.00
57801;BME280;43627;42.728;23.256;2023-01-24T01:51:47;95962.59;;;3.15;100.00
57801;BME280;43627;42.728;23.256;2023-01-24T01:54:21;95956.84;;;3.13;100.00
57801;BME280;43627;42.728;23.256;2023-01-24T01:56:56;95964.91;;;3.17;100.00
57801;BME280;43627;42.728;23.256;2023-01-24T01:59:34;95962.22;;;3.13;100.00
57801;BME280;43627;42.728;23.256;2023-01-24T02:02:02;95965.28;;;3.12;100.00
57801;BME280;43627;42.728;23.256;2023-01-24T02:04:34;95949.16;;;3.08;100.00
57801;BME280;43627;42.728;23.256;2023-01-24T02:09:34;95955.31;;;3.09;100.00
57801;BME280;43627;42.728;23.256;2023-01-24T02:12:06;95869.22;;;2.45;100.00
57801;BME280;43627;42.728;23.256;2023-01-24T02:14:34;95933.38;;;3.00;100.00
57801;BME280;43627;42.728;23.256;2023-01-24T02:17:21;95915.75;;;2.77;100.00
57801;BME280;43627;42.728;23.256;2023-01-24T02:25:29;95943.03;;;2.72;100.00
57801;BME280;43627;42.728;23.256;2023-01-24T02:27:57;95950.38;;;2.61;100.00
57801;BME280;43627;42.728;23.256;2023-01-24T02:30:25;95940.75;;;2.60;100.00
57801;BME280;43627;42.728;23.256;2023-01-24T02:32:51;95953.06;;;2.72;100.00
57801;BME280;43627;42.728;23.256;2023-01-24T02:35:27;95957.28;;;2.76;100.00
57801;BME280;43627;42.728;23.256;2023-01-24T02:38:00;95945.38;;;2.67;100.00
57801;BME280;43627;42.728;23.256;2023-01-24T02:40:31;95956.91;;;2.67;100.00
57801;BME280;43627;42.728;23.256;2023-01-24T02:43:00;95958.47;;;2.57;100.00
57801;BME280;43627;42.728;23.256;2023-01-24T02:45:30;95940.75;;;2.32;100.00
57801;BME280;43627;42.728;23.256;2023-01-24T02:47:58;95966.16;;;2.41;100.00
57801;BME280;43627;42.728;23.256;2023-01-24T02:50:27;95955.00;;;2.32;100.00
57801;BME280;43627;42.728;23.256;2023-01-24T02:52:54;95956.13;;;2.45;100.00
57801;BME280;43627;42.728;23.256;2023-01-24T02:55:41;95953.84;;;2.51;100.00
57801;BME280;43627;42.728;23.256;2023-01-24T02:58:27;95952.66;;;2.73;100.00
57801;BME280;43627;42.728;23.256;2023-01-24T03:00:53;95953.06;;;2.79;100.00
57801;BME280;43627;42.728;23.256;2023-01-24T03:03:20;95948.41;;;2.83;100.00
57801;BME280;43627;42.728;23.256;2023-01-24T03:05:47;95936.91;;;2.75;100.00
57801;BME280;43627;42.728;23.256;2023-01-24T03:08:24;95950.34;;;2.90;100.00
57801;BME280;43627;42.728;23.256;2023-01-24T03:10:52;95925.34;;;2.78;100.00
57801;BME280;43627;42.728;23.256;2023-01-24T03:13:19;95955.72;;;2.93;100.00
57801;BME280;43627;42.728;23.256;2023-01-24T03:16:05;95948.03;;;2.88;100.00
57801;BME280;43627;42.728;23.256;2023-01-24T03:18:51;95936.13;;;2.85;100.00
57801;BME280;43627;42.728;23.256;2023-01-24T03:21:37;95946.09;;;2.92;100.00
57801;BME280;43627;42.728;23.256;2023-01-24T03:24:22;95915.34;;;2.79;100.00
57801;BME280;43627;42.728;23.256;2023-01-24T03:27:08;95943.03;;;2.90;100.00
57801;BME280;43627;42.728;23.256;2023-01-24T03:29:53;95953.41;;;2.92;100.00
57801;BME280;43627;42.728;23.256;2023-01-24T03:32:38;95944.56;;;2.88;100.00
57801;BME280;43627;42.728;23.256;2023-01-24T03:35:24;95949.94;;;2.84;100.00
57801;BME280;43627;42.728;23.256;2023-01-24T03:37:51;95922.69;;;2.68;100.00
57801;BME280;43627;42.728;23.256;2023-01-24T03:40:36;95928.84;;;2.68;100.00
57801;BME280;43627;42.728;23.256;2023-01-24T03:43:03;95936.13;;;2.71;100.00
57801;BME280;43627;42.728;23.256;2023-01-24T03:45:33;95953.44;;;2.70;100.00
57801;BME280;43627;42.728;23.256;2023-01-24T03:48:06;95925.75;;;2.52;100.00
57801;BME280;43627;42.728;23.256;2023-01-24T03:50:43;95952.28;;;2.43;100.00
57801;BME280;43627;42.728;23.256;2023-01-24T03:53:31;95944.22;;;2.28;100.00
57801;BME280;43627;42.728;23.256;2023-01-24T03:56:01;95949.59;;;2.32;100.00
57801;BME280;43627;42.728;23.256;2023-01-24T03:58:30;95937.28;;;2.35;100.00
57801;BME280;43627;42.728;23.256;2023-01-24T04:00:57;95941.91;;;2.34;100.00
57801;BME280;43627;42.728;23.256;2023-01-24T04:03:24;95936.94;;;2.40;100.00
57801;BME280;43627;42.728;23.256;2023-01-24T04:05:51;95934.63;;;2.42;100.00
57801;BME280;43627;42.728;23.256;2023-01-24T04:08:18;95927.69;;;2.51;100.00
57801;BME280;43627;42.728;23.256;2023-01-24T04:10:45;95939.22;;;2.48;100.00
57801;BME280;43627;42.728;23.256;2023-01-24T04:13:12;95914.63;;;2.57;100.00
57801;BME280;43627;42.728;23.256;2023-01-24T04:15:39;95930.38;;;2.51;100.00
57801;BME280;43627;42.728;23.256;2023-01-24T04:18:06;95917.69;;;2.48;100.00
57801;BME280;43627;42.728;23.256;2023-01-24T04:20:35;95917.66;;;2.55;100.00
57801;BME280;43627;42.728;23.256;2023-01-24T04:23:04;95932.69;;;2.46;100.00
57801;BME280;43627;42.728;23.256;2023-01-24T04:25:31;95936.91;;;2.50;100.00
57801;BME280;43627;42.728;23.256;2023-01-24T04:27:58;95899.63;;;2.49;100.00
57801;BME280;43627;42.728;23.256;2023-01-24T04:30:25;95924.63;;;2.39;100.00
57801;BME280;43627;42.728;23.256;2023-01-24T04:32:52;95926.16;;;2.40;100.00
57801;BME280;43627;42.728;23.256;2023-01-24T04:35:24;95915.75;;;2.35;100.00
57801;BME280;43627;42.728;23.256;2023-01-24T04:37:52;95910.00;;;2.22;100.00
57801;BME280;43627;42.728;23.256;2023-01-24T04:40:19;95934.63;;;2.31;100.00
57801;BME280;43627;42.728;23.256;2023-01-24T04:42:45;95934.59;;;2.35;100.00
57801;BME280;43627;42.728;23.256;2023-01-24T04:45:12;95923.84;;;2.35;100.00
57801;BME280;43627;42.728;23.256;2023-01-24T04:47:39;95913.84;;;2.17;100.00
57801;BME280;43627;42.728;23.256;2023-01-24T04:50:07;95943.84;;;2.30;100.00
57801;BME280;43627;42.728;23.256;2023-01-24T04:52:34;95942.69;;;2.31;100.00
57801;BME280;43627;42.728;23.256;2023-01-24T04:55:01;95925.75;;;2.23;100.00
57801;BME280;43627;42.728;23.256;2023-01-24T04:57:28;95939.22;;;2.27;100.00
57801;BME280;43627;42.728;23.256;2023-01-24T04:59:54;95913.06;;;2.06;100.00
57801;BME280;43627;42.728;23.256;2023-01-24T05:02:21;95940.00;;;2.20;100.00
57801;BME280;43627;42.728;23.256;2023-01-24T05:04:47;95956.50;;;2.37;100.00
57801;BME280;43627;42.728;23.256;2023-01-24T05:07:14;95941.16;;;2.37;100.00
57801;BME280;43627;42.728;23.256;2023-01-24T05:09:41;95946.53;;;2.41;100.00
57801;BME280;43627;42.728;23.256;2023-01-24T05:12:07;95951.13;;;2.44;100.00
57801;BME280;43627;42.728;23.256;2023-01-24T05:14:34;95943.84;;;2.34;100.00
57801;BME280;43627;42.728;23.256;2023-01-24T05:17:01;95966.53;;;2.47;100.00
57801;BME280;43627;42.728;23.256;2023-01-24T05:19:28;95960.38;;;2.28;100.00
57801;BME280;43627;42.728;23.256;2023-01-24T05:21:56;95971.88;;;2.25;100.00
57801;BME280;43627;42.728;23.256;2023-01-24T05:24:23;95984.56;;;2.14;100.00
57801;BME280;43627;42.728;23.256;2023-01-24T05:26:50;95960.34;;;2.14;100.00
57801;BME280;43627;42.728;23.256;2023-01-24T05:29:16;95991.09;;;2.10;100.00
57801;BME280;43627;42.728;23.256;2023-01-24T05:31:43;96000.31;;;2.09;100.00
57801;BME280;43627;42.728;23.256;2023-01-24T05:34:10;96007.63;;;2.26;100.00
57801;BME280;43627;42.728;23.256;2023-01-24T05:36:36;96002.66;;;2.32;100.00
57801;BME280;43627;42.728;23.256;2023-01-24T05:39:03;96004.59;;;2.31;100.00
57801;BME280;43627;42.728;23.256;2023-01-24T05:41:30;95996.50;;;2.35;100.00
57801;BME280;43627;42.728;23.256;2023-01-24T05:43:56;96003.41;;;2.21;100.00
57801;BME280;43627;42.728;23.256;2023-01-24T05:46:23;95964.56;;;2.05;100.00
57801;BME280;43627;42.728;23.256;2023-01-24T05:48:50;95994.97;;;2.19;100.00
57801;BME280;43627;42.728;23.256;2023-01-24T05:51:18;96004.56;;;2.13;100.00
57801;BME280;43627;42.728;23.256;2023-01-24T05:53:46;96009.50;;;1.93;100.00
57801;BME280;43627;42.728;23.256;2023-01-24T05:56:18;96018.34;;;1.94;100.00
57801;BME280;43627;42.728;23.256;2023-01-24T05:58:46;96022.13;;;1.79;100.00
57801;BME280;43627;42.728;23.256;2023-01-24T06:01:16;96019.00;;;1.62;100.00
57801;BME280;43627;42.728;23.256;2023-01-24T06:03:45;96015.88;;;1.53;100.00
57801;BME280;43627;42.728;23.256;2023-01-24T06:06:13;96028.94;;;1.58;100.00
57801;BME280;43627;42.728;23.256;2023-01-24T06:08:41;96025.44;;;1.47;100.00
57801;BME280;43627;42.728;23.256;2023-01-24T06:11:14;96031.16;;;1.42;100.00
57801;BME280;43627;42.728;23.256;2023-01-24T06:13:41;96013.84;;;1.32;100.00
57801;BME280;43627;42.728;23.256;2023-01-24T06:16:20;96040.81;;;1.47;100.00
57801;BME280;43627;42.728;23.256;2023-01-24T06:18:48;96044.25;;;1.47;100.00
57801;BME280;43627;42.728;23.256;2023-01-24T06:24:00;96047.72;;;1.48;100.00
57801;BME280;43627;42.728;23.256;2023-01-24T06:26:27;96036.16;;;1.40;100.00
57801;BME280;43627;42.728;23.256;2023-01-24T06:28:54;96021.19;;;1.39;100.00
57801;BME280;43627;42.728;23.256;2023-01-24T06:31:34;96056.59;;;1.52;100.00
57801;BME280;43627;42.728;23.256;2023-01-24T06:39:20;96066.53;;;1.44;100.00
57801;BME280;43627;42.728;23.256;2023-01-24T06:41:48;96066.09;;;1.38;100.00
57801;BME280;43627;42.728;23.256;2023-01-24T06:44:15;96051.31;;;1.11;100.00
57801;BME280;43627;42.728;23.256;2023-01-24T06:46:42;96064.44;;;1.23;100.00
57801;BME280;43627;42.728;23.256;2023-01-24T06:49:12;96074.72;;;1.10;100.00
57801;BME280;43627;42.728;23.256;2023-01-24T06:51:38;96073.94;;;1.06;100.00
57801;BME280;43627;42.728;23.256;2023-01-24T06:54:05;96078.50;;;1.02;100.00
57801;BME280;43627;42.728;23.256;2023-01-24T06:56:32;96082.19;;;0.83;100.00
57801;BME280;43627;42.728;23.256;2023-01-24T06:58:58;96083.31;;;0.79;100.00
57801;BME280;43627;42.728;23.256;2023-01-24T07:01:25;96062.91;;;0.67;100.00
57801;BME280;43627;42.728;23.256;2023-01-24T07:03:52;96078.50;;;0.54;100.00
57801;BME280;43627;42.728;23.256;2023-01-24T07:06:19;96095.34;;;0.51;100.00
57801;BME280;43627;42.728;23.256;2023-01-24T07:08:48;96071.00;;;0.30;100.00
57801;BME280;43627;42.728;23.256;2023-01-24T07:11:15;96060.44;;;0.11;100.00
57801;BME280;43627;42.728;23.256;2023-01-24T07:13:42;96078.59;;;0.28;100.00
57801;BME280;43627;42.728;23.256;2023-01-24T07:16:09;96097.84;;;0.34;100.00
57801;BME280;43627;42.728;23.256;2023-01-24T07:18:36;96084.31;;;0.23;100.00
57801;BME280;43627;42.728;23.256;2023-01-24T07:21:07;96080.78;;;0.15;100.00
57801;BME280;43627;42.728;23.256;2023-01-24T07:23:34;96089.59;;;0.16;100.00
57801;BME280;43627;42.728;23.256;2023-01-24T07:26:02;96095.13;;;0.30;100.00
57801;BME280;43627;42.728;23.256;2023-01-24T07:28:29;96096.28;;;0.29;100.00
57801;BME280;43627;42.728;23.256;2023-01-24T07:30:56;96093.72;;;0.43;100.00
57801;BME280;43627;42.728;23.256;2023-01-24T07:33:23;96098.41;;;0.50;100.00
57801;BME280;43627;42.728;23.256;2023-01-24T07:35:49;96078.78;;;0.46;100.00
57801;BME280;43627;42.728;23.256;2023-01-24T07:38:16;96104.63;;;0.61;100.00
57801;BME280;43627;42.728;23.256;2023-01-24T07:40:43;96066.41;;;0.31;100.00
57801;BME280;43627;42.728;23.256;2023-01-24T07:43:09;96065.91;;;0.21;100.00
57801;BME280;43627;42.728;23.256;2023-01-24T07:45:36;96084.81;;;0.32;100.00
57801;BME280;43627;42.728;23.256;2023-01-24T07:48:09;96112.59;;;0.50;100.00
57801;BME280;43627;42.728;23.256;2023-01-24T07:50:36;96109.22;;;0.57;100.00
57801;BME280;43627;42.728;23.256;2023-01-24T07:53:03;96108.28;;;0.42;100.00
57801;BME280;43627;42.728;23.256;2023-01-24T07:55:30;96101.00;;;0.43;100.00
57801;BME280;43627;42.728;23.256;2023-01-24T07:58:00;96132.53;;;0.53;100.00
57801;BME280;43627;42.728;23.256;2023-01-24T08:00:27;96139.50;;;0.57;100.00
57801;BME280;43627;42.728;23.256;2023-01-24T08:02:54;96131.84;;;0.60;100.00
57801;BME280;43627;42.728;23.256;2023-01-24T08:05:21;96139.53;;;0.61;100.00
57801;BME280;43627;42.728;23.256;2023-01-24T08:07:48;96119.00;;;0.42;100.00
57801;BME280;43627;42.728;23.256;2023-01-24T08:10:15;96140.69;;;0.64;100.00
57801;BME280;43627;42.728;23.256;2023-01-24T08:12:41;96136.88;;;0.65;100.00
57801;BME280;43627;42.728;23.256;2023-01-24T08:15:08;96144.22;;;0.71;100.00
57801;BME280;43627;42.728;23.256;2023-01-24T08:17:36;96133.09;;;0.69;100.00
57801;BME280;43627;42.728;23.256;2023-01-24T08:20:03;96139.63;;;0.72;100.00
57801;BME280;43627;42.728;23.256;2023-01-24T08:22:30;96133.50;;;0.75;100.00
57801;BME280;43627;42.728;23.256;2023-01-24T08:24:57;96150.84;;;0.81;100.00
57801;BME280;43627;42.728;23.256;2023-01-24T08:27:24;96142.34;;;0.75;100.00
57801;BME280;43627;42.728;23.256;2023-01-24T08:29:51;96142.81;;;0.84;100.00
57801;BME280;43627;42.728;23.256;2023-01-24T08:32:18;96140.50;;;0.83;100.00
57801;BME280;43627;42.728;23.256;2023-01-24T08:34:44;96140.53;;;0.87;100.00
57801;BME280;43627;42.728;23.256;2023-01-24T08:37:11;96155.50;;;0.88;100.00
57801;BME280;43627;42.728;23.256;2023-01-24T08:39:38;96124.25;;;0.69;100.00
57801;BME280;43627;42.728;23.256;2023-01-24T08:42:04;96135.97;;;0.91;100.00
57801;BME280;43627;42.728;23.256;2023-01-24T08:44:31;96128.22;;;0.82;100.00
57801;BME280;43627;42.728;23.256;2023-01-24T08:46:58;96142.25;;;1.05;100.00
57801;BME280;43627;42.728;23.256;2023-01-24T08:49:24;96109.78;;;0.77;100.00
57801;BME280;43627;42.728;23.256;2023-01-24T08:51:51;96149.47;;;1.01;100.00
57801;BME280;43627;42.728;23.256;2023-01-24T08:54:27;96134.97;;;1.06;100.00
57801;BME280;43627;42.728;23.256;2023-01-24T08:56:54;96133.41;;;1.05;100.00
57801;BME280;43627;42.728;23.256;2023-01-24T08:59:21;96133.06;;;1.10;100.00
57801;BME280;43627;42.728;23.256;2023-01-24T09:01:48;96134.59;;;1.11;100.00
57801;BME280;43627;42.728;23.256;2023-01-24T09:04:15;96137.69;;;1.13;100.00
57801;BME280;43627;42.728;23.256;2023-01-24T09:06:41;96143.81;;;1.13;100.00
57801;BME280;43627;42.728;23.256;2023-01-24T09:09:08;96146.25;;;1.29;100.00
57801;BME280;43627;42.728;23.256;2023-01-24T09:11:35;96137.00;;;1.23;100.00
57801;BME280;43627;42.728;23.256;2023-01-24T09:14:02;96150.81;;;1.22;100.00
57801;BME280;43627;42.728;23.256;2023-01-24T09:16:28;96130.50;;;1.24;100.00
57801;BME280;43627;42.728;23.256;2023-01-24T09:18:55;96110.16;;;1.27;100.00
57801;BME280;43627;42.728;23.256;2023-01-24T09:21:25;96143.69;;;1.43;100.00
57801;BME280;43627;42.728;23.256;2023-01-24T09:23:55;96147.59;;;1.53;100.00
57801;BME280;43627;42.728;23.256;2023-01-24T09:26:21;96113.31;;;1.36;100.00
57801;BME280;43627;42.728;23.256;2023-01-24T09:28:48;96138.25;;;1.36;100.00
57801;BME280;43627;42.728;23.256;2023-01-24T09:31:16;96135.56;;;1.36;100.00
57801;BME280;43627;42.728;23.256;2023-01-24T09:33:43;96104.41;;;1.25;100.00
57801;BME280;43627;42.728;23.256;2023-01-24T09:36:24;96135.69;;;1.58;100.00
57801;BME280;43627;42.728;23.256;2023-01-24T09:38:50;96132.63;;;1.59;100.00
57801;BME280;43627;42.728;23.256;2023-01-24T09:44:16;96146.47;;;1.58;100.00
57801;BME280;43627;42.728;23.256;2023-01-24T09:46:52;96134.88;;;1.50;100.00
57801;BME280;43627;42.728;23.256;2023-01-24T09:49:36;96135.31;;;1.59;100.00
57801;BME280;43627;42.728;23.256;2023-01-24T09:52:09;96123.34;;;1.50;100.00
57801;BME280;43627;42.728;23.256;2023-01-24T09:54:47;96130.38;;;1.68;100.00
57801;BME280;43627;42.728;23.256;2023-01-24T09:57:31;96124.28;;;1.71;100.00
57801;BME280;43627;42.728;23.256;2023-01-24T10:00:09;96118.88;;;1.68;100.00
57801;BME280;43627;42.728;23.256;2023-01-24T10:02:39;96122.81;;;1.85;100.00
57801;BME280;43627;42.728;23.256;2023-01-24T10:05:12;96115.84;;;1.77;100.00
57801;BME280;43627;42.728;23.256;2023-01-24T10:16:35;96112.38;;;1.76;100.00
57801;BME280;43627;42.728;23.256;2023-01-24T10:25:13;96112.38;;;1.73;100.00
57801;BME280;43627;42.728;23.256;2023-01-24T10:27:42;96115.03;;;1.65;100.00
57801;BME280;43627;42.728;23.256;2023-01-24T10:30:28;96080.06;;;1.62;100.00
57801;BME280;43627;42.728;23.256;2023-01-24T10:33:00;96106.63;;;1.78;100.00
57801;BME280;43627;42.728;23.256;2023-01-24T10:35:40;96081.97;;;1.61;100.00
57801;BME280;43627;42.728;23.256;2023-01-24T10:38:11;96088.91;;;1.66;100.00
57801;BME280;43627;42.728;23.256;2023-01-24T10:40:54;96081.28;;;1.79;100.00
57801;BME280;43627;42.728;23.256;2023-01-24T10:43:27;96082.88;;;1.90;100.00
57801;BME280;43627;42.728;23.256;2023-01-24T10:49:07;96036.66;;;1.63;100.00
57801;BME280;43627;42.728;23.256;2023-01-24T10:51:38;96075.53;;;1.84;100.00
57801;BME280;43627;42.728;23.256;2023-01-24T10:54:19;96092.50;;;1.98;100.00
57801;BME280;43627;42.728;23.256;2023-01-24T10:56:46;96053.56;;;1.67;100.00
57801;BME280;43627;42.728;23.256;2023-01-24T10:59:14;96085.50;;;1.76;100.00
57801;BME280;43627;42.728;23.256;2023-01-24T11:01:47;96073.53;;;1.66;100.00
57801;BME280;43627;42.728;23.256;2023-01-24T11:04:19;96096.63;;;1.75;100.00
57801;BME280;43627;42.728;23.256;2023-01-24T11:06:48;96072.72;;;1.55;100.00
57801;BME280;43627;42.728;23.256;2023-01-24T11:09:21;96060.53;;;1.72;100.00
57801;BME280;43627;42.728;23.256;2023-01-24T11:11:53;96099.03;;;1.90;100.00
57801;BME280;43627;42.728;23.256;2023-01-24T11:14:28;96066.66;;;1.73;100.00
57801;BME280;43627;42.728;23.256;2023-01-24T11:16:59;96038.59;;;1.66;100.00
57801;BME280;43627;42.728;23.256;2023-01-24T11:19:37;96054.06;;;1.94;100.00
57801;BME280;43627;42.728;23.256;2023-01-24T11:22:26;96061.03;;;2.03;100.00
57801;BME280;43627;42.728;23.256;2023-01-24T11:25:01;96081.06;;;2.19;100.00
57801;BME280;43627;42.728;23.256;2023-01-24T11:27:28;96033.72;;;2.04;100.00
57801;BME280;43627;42.728;23.256;2023-01-24T11:30:22;96060.63;;;2.04;100.00
57801;BME280;43627;42.728;23.256;2023-01-24T11:33:08;96063.72;;;1.99;100.00
57801;BME280;43627;42.728;23.256;2023-01-24T11:35:44;96041.00;;;1.96;100.00
57801;BME280;43627;42.728;23.256;2023-01-24T11:48:55;96019.38;;;1.68;100.00
57801;BME280;43627;42.728;23.256;2023-01-24T11:57:11;96066.03;;;2.15;100.00
57801;BME280;43627;42.728;23.256;2023-01-24T11:59:56;95992.88;;;1.66;100.00
57801;BME280;43627;42.728;23.256;2023-01-24T12:05:59;96034.06;;;1.88;100.00
57801;BME280;43627;42.728;23.256;2023-01-24T12:11:22;96069.09;;;2.03;100.00
57801;BME280;43627;42.728;23.256;2023-01-24T12:22:19;96065.56;;;1.81;100.00
57801;BME280;43627;42.728;23.256;2023-01-24T12:24:54;96061.69;;;1.75;100.00
57801;BME280;43627;42.728;23.256;2023-01-24T12:27:25;95984.22;;;1.14;100.00
57801;BME280;43627;42.728;23.256;2023-01-24T12:30:03;96056.34;;;1.82;100.00
57801;BME280;43627;42.728;23.256;2023-01-24T12:32:52;96060.94;;;1.88;100.00
57801;BME280;43627;42.728;23.256;2023-01-24T12:35:37;96019.25;;;1.39;100.00
57801;BME280;43627;42.728;23.256;2023-01-24T12:43:34;96073.44;;;1.49;100.00
57801;BME280;43627;42.728;23.256;2023-01-24T12:51:57;96049.78;;;1.06;100.00
57801;BME280;43627;42.728;23.256;2023-01-24T12:54:32;96055.22;;;1.21;100.00
57801;BME280;43627;42.728;23.256;2023-01-24T12:57:24;96047.13;;;1.13;100.00
57801;BME280;43627;42.728;23.256;2023-01-24T12:59:52;96065.16;;;1.13;100.00
57801;BME280;43627;42.728;23.256;2023-01-24T13:02:32;96054.44;;;1.17;100.00
57801;BME280;43627;42.728;23.256;2023-01-24T13:10:53;96061.28;;;1.07;100.00
57801;BME280;43627;42.728;23.256;2023-01-24T13:13:28;96062.41;;;1.02;100.00
57801;BME280;43627;42.728;23.256;2023-01-24T13:16:16;95981.03;;;0.43;100.00
57801;BME280;43627;42.728;23.256;2023-01-24T13:30:47;96042.44;;;1.00;100.00
57801;BME280;43627;42.728;23.256;2023-01-24T13:33:46;96068.66;;;1.21;100.00
57801;BME280;43627;42.728;23.256;2023-01-24T13:36:19;96067.06;;;1.09;100.00
57801;BME280;43627;42.728;23.256;2023-01-24T13:38:48;96069.09;;;1.30;100.00
57801;BME280;43627;42.728;23.256;2023-01-24T13:44:01;96071.47;;;1.42;100.00
57801;BME280;43627;42.728;23.256;2023-01-24T13:51:57;96067.25;;;1.37;100.00
57801;BME280;43627;42.728;23.256;2023-01-24T13:54:35;96084.97;;;1.49;100.00
57801;BME280;43627;42.728;23.256;2023-01-24T13:59:35;96093.66;;;1.28;100.00
57801;BME280;43627;42.728;23.256;2023-01-24T14:02:25;96073.00;;;1.36;100.00
57801;BME280;43627;42.728;23.256;2023-01-24T14:04:54;96081.31;;;1.20;100.00
57801;BME280;43627;42.728;23.256;2023-01-24T14:07:35;96071.34;;;1.21;100.00
57801;BME280;43627;42.728;23.256;2023-01-24T14:10:05;96074.88;;;1.32;100.00
57801;BME280;43627;42.728;23.256;2023-01-24T14:12:36;96069.16;;;1.40;100.00
57801;BME280;43627;42.728;23.256;2023-01-24T14:22:44;96089.50;;;1.34;100.00
57801;BME280;43627;42.728;23.256;2023-01-24T14:25:34;96094.38;;;1.22;100.00
57801;BME280;43627;42.728;23.256;2023-01-24T14:28:25;96083.31;;;1.27;100.00
57801;BME280;43627;42.728;23.256;2023-01-24T14:30:58;96092.13;;;1.31;100.00
57801;BME280;43627;42.728;23.256;2023-01-24T14:33:34;96096.78;;;1.34;100.00
57801;BME280;43627;42.728;23.256;2023-01-24T14:36:20;96087.47;;;1.21;100.00
57801;BME280;43627;42.728;23.256;2023-01-24T14:38:47;96098.31;;;1.35;100.00
57801;BME280;43627;42.728;23.256;2023-01-24T14:41:21;96102.19;;;1.41;100.00
57801;BME280;43627;42.728;23.256;2023-01-24T14:43:49;96084.47;;;1.29;100.00
57801;BME280;43627;42.728;23.256;2023-01-24T14:46:21;96105.25;;;1.39;100.00
57801;BME280;43627;42.728;23.256;2023-01-24T14:48:49;96096.34;;;1.25;100.00
57801;BME280;43627;42.728;23.256;2023-01-24T14:51:23;96094.44;;;1.29;100.00
57801;BME280;43627;42.728;23.256;2023-01-24T14:53:54;96104.88;;;1.37;100.00
57801;BME280;43627;42.728;23.256;2023-01-24T14:56:21;96090.59;;;1.30;100.00
57801;BME280;43627;42.728;23.256;2023-01-24T14:58:49;96104.03;;;1.30;100.00
57801;BME280;43627;42.728;23.256;2023-01-24T15:01:29;96099.88;;;1.36;100.00
57801;BME280;43627;42.728;23.256;2023-01-24T15:03:57;96102.94;;;1.38;100.00